Time;durP1;ratioP1;P1;durP2;ratioP2;P2;SDS_P1;SDS_P2;PMS_P1;PMS_P2;Temp;Humidity;BMP_temperature;BMP_pressure;BME280_temperature;BME280_humidity;BME280_pressure;Samples;Min_cycle;Max_cycle;Signal;HPM_P1;HPM_P2
2023/10/25 00:01:10;;;;;;;25.08;16.30;;;;;;;14.76;100.00;98764.91;5091734;28;20040;-48
2023/10/25 00:03:39;;;;;;;25.35;16.20;;;;;;;14.79;100.00;98756.59;5091335;28;20067;-45
2023/10/25 00:06:08;;;;;;;24.50;16.70;;;;;;;14.80;100.00;98753.72;5091861;28;20405;-45
2023/10/25 00:08:36;;;;;;;24.75;16.33;;;;;;;14.81;100.00;98733.94;5091848;28;20454;-47
2023/10/25 00:11:09;;;;;;;24.95;16.25;;;;;;;14.88;100.00;98736.84;5091692;28;20052;-47
2023/10/25 00:13:41;;;;;;;28.33;17.02;;;;;;;14.93;100.00;98739.91;5091959;28;20052;-47
2023/10/25 00:16:18;;;;;;;24.10;16.27;;;;;;;14.91;100.00;98749.13;5094140;28;20086;-47
2023/10/25 00:18:46;;;;;;;26.88;16.55;;;;;;;15.00;100.00;98740.97;5091749;28;20199;-47
2023/10/25 00:21:15;;;;;;;24.23;16.55;;;;;;;15.07;100.00;98733.13;5091616;28;20413;-45
2023/10/25 00:23:44;;;;;;;29.15;17.30;;;;;;;15.01;100.00;98737.28;5091119;28;20527;-46
2023/10/25 00:26:21;;;;;;;27.52;16.95;;;;;;;14.95;100.00;98726.31;5091551;28;20136;-45
2023/10/25 00:28:52;;;;;;;26.73;16.98;;;;;;;14.93;100.00;98720.25;5091306;28;20044;-46
2023/10/25 00:31:20;;;;;;;25.77;16.45;;;;;;;14.94;100.00;98717.41;5091542;28;20044;-46
2023/10/25 00:33:49;;;;;;;25.55;16.30;;;;;;;15.04;100.00;98717.31;5091390;28;20044;-45
2023/10/25 00:36:22;;;;;;;25.15;16.55;;;;;;;15.04;100.00;98711.94;5091636;28;20040;-45
2023/10/25 00:38:50;;;;;;;24.10;16.45;;;;;;;15.03;100.00;98704.91;5091242;28;20385;-46
2023/10/25 00:41:26;;;;;;;25.92;14.23;;;;;;;15.00;100.00;98707.91;5091436;28;20048;-46
2023/10/25 00:43:57;;;;;;;24.85;15.30;;;;;;;15.08;100.00;98705.28;5091553;28;20123;-45
2023/10/25 00:46:30;;;;;;;26.92;16.10;;;;;;;15.12;100.00;98696.72;5091436;28;20044;-45
2023/10/25 00:49:03;;;;;;;20.98;14.50;;;;;;;15.16;100.00;98687.38;5091329;28;20178;-46
2023/10/25 00:51:32;;;;;;;22.40;13.73;;;;;;;15.18;100.00;98689.91;5091127;28;20071;-46
2023/10/25 00:54:04;;;;;;;21.30;12.70;;;;;;;15.22;100.00;98685.03;5091452;28;20083;-47
2023/10/25 00:56:36;;;;;;;24.13;13.52;;;;;;;15.26;100.00;98695.31;5091460;28;20135;-46
2023/10/25 00:59:05;;;;;;;23.95;11.82;;;;;;;15.28;100.00;98693.31;5092582;28;20603;-46
2023/10/25 01:01:34;;;;;;;20.92;10.75;;;;;;;15.35;100.00;98696.22;5091201;28;20081;-45
2023/10/25 01:04:02;;;;;;;23.50;9.63;;;;;;;15.35;100.00;98689.00;5092150;28;20073;-46
2023/10/25 01:06:31;;;;;;;23.40;9.07;;;;;;;15.36;100.00;98679.91;5095812;28;20044;-47
2023/10/25 01:08:59;;;;;;;24.33;9.77;;;;;;;15.42;100.00;98678.41;5095458;28;20151;-46
2023/10/25 01:11:28;;;;;;;25.85;9.60;;;;;;;15.40;100.00;98670.53;5095026;28;20070;-45
2023/10/25 01:13:57;;;;;;;23.25;10.10;;;;;;;15.37;100.00;98660.09;5095416;28;20048;-45
2023/10/25 01:16:26;;;;;;;24.80;9.60;;;;;;;15.39;100.00;98662.63;5095097;28;20051;-47
2023/10/25 01:18:55;;;;;;;28.20;10.32;;;;;;;15.37;100.00;98653.91;5095447;28;20055;-47
2023/10/25 01:21:23;;;;;;;24.33;10.90;;;;;;;15.27;100.00;98643.28;5095416;28;20052;-46
2023/10/25 01:23:53;;;;;;;27.23;12.40;;;;;;;15.23;100.00;98631.16;5094907;28;20052;-46
2023/10/25 01:26:22;;;;;;;29.88;13.05;;;;;;;15.28;100.00;98623.47;5094884;28;20374;-46
2023/10/25 01:28:50;;;;;;;26.23;12.60;;;;;;;15.33;100.00;98631.03;5095087;28;20044;-46
2023/10/25 01:31:19;;;;;;;29.40;13.80;;;;;;;15.15;100.00;98604.25;5094749;28;20048;-47
2023/10/25 01:33:51;;;;;;;27.35;13.50;;;;;;;15.23;100.00;98588.19;5094899;28;20044;-46
2023/10/25 01:36:19;;;;;;;29.17;13.80;;;;;;;15.20;100.00;98588.50;5094915;28;20481;-45
2023/10/25 01:38:48;;;;;;;29.50;14.98;;;;;;;15.20;100.00;98583.13;5094889;28;20416;-46
2023/10/25 01:41:18;;;;;;;27.95;13.98;;;;;;;15.27;100.00;98578.81;5094757;28;20052;-46
2023/10/25 01:43:46;;;;;;;30.83;13.90;;;;;;;15.21;100.00;98563.34;5094908;28;20089;-46
2023/10/25 01:46:15;;;;;;;26.80;14.23;;;;;;;15.22;100.00;98573.06;5095406;28;20546;-47
2023/10/25 01:48:44;;;;;;;30.92;13.68;;;;;;;15.29;100.00;98571.44;5094065;28;20404;-46
2023/10/25 01:51:13;;;;;;;26.27;14.13;;;;;;;15.30;100.00;98567.72;5094892;28;20048;-47
2023/10/25 01:53:41;;;;;;;29.88;14.23;;;;;;;15.28;100.00;98564.38;5094577;28;20442;-44
2023/10/25 01:56:10;;;;;;;29.23;14.48;;;;;;;15.30;100.00;98575.78;5094479;28;20047;-46
2023/10/25 01:58:42;;;;;;;28.92;13.23;;;;;;;15.38;100.00;98575.81;5094467;28;20073;-45
2023/10/25 02:01:10;;;;;;;27.35;13.88;;;;;;;15.39;100.00;98588.25;5094597;28;20052;-46
2023/10/25 02:03:39;;;;;;;27.33;13.85;;;;;;;15.41;100.00;98571.97;5094488;28;20043;-46
2023/10/25 02:06:13;;;;;;;28.90;13.45;;;;;;;15.50;100.00;98573.66;5092947;28;20428;-46
2023/10/25 02:08:42;;;;;;;25.92;14.10;;;;;;;15.56;100.00;98566.81;5094580;28;20047;-47
2023/10/25 02:11:11;;;;;;;27.15;13.73;;;;;;;15.53;100.00;98570.63;5076498;28;20481;-46
2023/10/25 02:13:39;;;;;;;25.55;13.43;;;;;;;15.51;100.00;98574.50;5094653;28;20075;-46
2023/10/25 02:16:17;;;;;;;28.10;13.18;;;;;;;15.53;100.00;98569.81;5094160;28;20048;-46
2023/10/25 02:18:45;;;;;;;26.58;13.70;;;;;;;15.54;100.00;98568.78;5094575;28;20070;-45
2023/10/25 02:21:14;;;;;;;28.98;13.25;;;;;;;15.57;100.00;98565.78;5094356;28;20055;-44
2023/10/25 02:23:43;;;;;;;26.52;12.80;;;;;;;15.60;100.00;98570.84;5094723;28;20056;-44
2023/10/25 02:26:12;;;;;;;28.05;13.95;;;;;;;15.58;100.00;98570.16;5093592;28;20874;-45
2023/10/25 02:28:41;;;;;;;27.15;13.40;;;;;;;15.60;100.00;98568.16;5094463;28;20127;-46
2023/10/25 02:31:09;;;;;;;31.45;15.40;;;;;;;15.49;100.00;98565.78;5094847;28;20097;-46
2023/10/25 02:33:39;;;;;;;29.98;13.93;;;;;;;15.51;100.00;98553.00;5094589;28;20390;-46
2023/10/25 02:36:08;;;;;;;31.23;14.25;;;;;;;15.53;100.00;98556.38;5093817;28;20040;-48
2023/10/25 02:38:37;;;;;;;29.25;14.13;;;;;;;15.52;100.00;98554.69;5094026;28;20083;-47
2023/10/25 02:41:06;;;;;;;28.50;14.13;;;;;;;15.48;100.00;98551.50;5093794;28;20537;-48
2023/10/25 02:43:35;;;;;;;32.80;14.82;;;;;;;15.42;100.00;98539.56;5093576;28;20485;-45
2023/10/25 02:46:05;;;;;;;28.10;14.15;;;;;;;15.41;100.00;98548.63;5094411;28;20129;-45
2023/10/25 02:48:34;;;;;;;29.85;13.88;;;;;;;15.44;100.00;98542.94;5094328;28;20431;-45
2023/10/25 02:51:05;;;;;;;31.15;13.77;;;;;;;15.41;100.00;98542.41;5093065;28;20052;-46
2023/10/25 02:53:36;;;;;;;33.05;14.02;;;;;;;15.35;100.00;98541.22;5094461;28;20081;-45
2023/10/25 02:56:07;;;;;;;31.90;14.40;;;;;;;15.39;100.00;98539.88;5092697;28;20400;-46
2023/10/25 02:58:35;;;;;;;28.00;13.75;;;;;;;15.43;100.00;98541.22;5093763;28;20059;-46
2023/10/25 03:01:05;;;;;;;31.65;13.90;;;;;;;15.35;100.00;98530.50;5093668;28;20473;-49
2023/10/25 03:03:34;;;;;;;29.70;15.18;;;;;;;15.27;100.00;98525.09;5093782;28;20072;-44
2023/10/25 03:06:04;;;;;;;28.50;14.07;;;;;;;15.25;100.00;98532.47;5093808;28;20446;-45
2023/10/25 03:08:33;;;;;;;29.70;14.02;;;;;;;15.24;100.00;98536.13;5093208;28;20051;-47
2023/10/25 03:11:02;;;;;;;29.67;13.82;;;;;;;15.35;100.00;98525.13;5093519;28;20097;-46
2023/10/25 03:13:32;;;;;;;31.77;13.85;;;;;;;15.37;100.00;98533.84;5091635;28;20048;-45
2023/10/25 03:16:00;;;;;;;30.98;13.85;;;;;;;15.34;100.00;98526.09;5092802;28;20131;-46
2023/10/25 03:18:33;;;;;;;26.60;13.45;;;;;;;15.32;100.00;98522.75;5092853;28;20048;-46
2023/10/25 03:21:03;;;;;;;27.85;14.10;;;;;;;15.28;100.00;98520.56;5093015;28;20040;-44
2023/10/25 03:23:33;;;;;;;25.88;13.30;;;;;;;15.34;100.00;98519.88;5093006;28;20052;-45
2023/10/25 03:26:05;;;;;;;28.88;13.82;;;;;;;15.48;100.00;98523.78;5093184;28;20044;-45
2023/10/25 03:28:36;;;;;;;26.98;13.20;;;;;;;15.52;100.00;98527.81;5092489;28;20409;-45
2023/10/25 03:31:09;;;;;;;26.25;12.50;;;;;;;15.55;100.00;98535.56;5093392;28;20396;-45
2023/10/25 03:33:39;;;;;;;25.35;11.93;;;;;;;15.59;100.00;98550.34;5093081;28;20062;-46
2023/10/25 03:36:11;;;;;;;22.70;12.80;;;;;;;15.56;100.00;98561.44;5092089;28;20044;-46
2023/10/25 03:38:41;;;;;;;19.33;8.30;;;;;;;15.26;100.00;98562.88;5093032;28;20056;-45
2023/10/25 03:41:10;;;;;;;11.82;6.38;;;;;;;15.21;100.00;98559.81;5091868;28;20173;-44
2023/10/25 03:43:39;;;;;;;6.25;3.50;;;;;;;14.99;100.00;98563.94;5092986;28;20051;-44
2023/10/25 03:46:09;;;;;;;6.15;2.42;;;;;;;14.87;100.00;98564.22;5091552;28;20428;-44
2023/10/25 03:48:38;;;;;;;4.68;2.10;;;;;;;14.82;100.00;98579.09;5091716;28;20051;-44
2023/10/25 03:51:08;;;;;;;3.78;2.13;;;;;;;14.80;100.00;98570.38;5092570;28;20047;-45
2023/10/25 03:53:41;;;;;;;4.80;2.28;;;;;;;14.61;100.00;98566.06;5092156;28;20484;-44
2023/10/25 03:56:12;;;;;;;5.88;2.90;;;;;;;14.56;100.00;98573.75;5092725;28;20127;-43
2023/10/25 03:58:41;;;;;;;5.75;3.20;;;;;;;14.47;100.00;98572.84;5091316;28;20043;-43
2023/10/25 04:01:14;;;;;;;5.82;3.35;;;;;;;14.32;100.00;98571.72;5092383;28;20507;-43
2023/10/25 04:03:45;;;;;;;7.40;4.57;;;;;;;14.32;100.00;98571.72;5092701;28;20044;-43
2023/10/25 04:06:14;;;;;;;6.68;4.57;;;;;;;14.25;100.00;98582.22;5092245;28;20127;-43
2023/10/25 04:08:46;;;;;;;7.90;5.07;;;;;;;14.30;100.00;98585.28;5092279;28;20044;-42
2023/10/25 04:11:16;;;;;;;11.32;6.05;;;;;;;14.25;100.00;98592.94;5092430;28;20048;-44
2023/10/25 04:13:45;;;;;;;10.88;6.28;;;;;;;14.18;100.00;98591.03;5092565;28;20055;-43
2023/10/25 04:16:13;;;;;;;10.85;6.40;;;;;;;14.15;100.00;98594.88;5092524;28;20052;-42
2023/10/25 04:18:41;;;;;;;11.35;6.75;;;;;;;14.09;100.00;98598.19;5092111;28;20048;-42
2023/10/25 04:21:15;;;;;;;9.95;6.85;;;;;;;14.04;100.00;98597.81;5092421;28;20044;-42
2023/10/25 04:23:46;;;;;;;;;;;;;;;14.07;100.00;98605.53;5093017;28;20052;-42
2023/10/25 04:26:16;;;;;;;8.57;5.90;;;;;;;14.03;100.00;98605.00;5092432;28;19920;-43
2023/10/25 04:28:47;;;;;;;9.63;5.95;;;;;;;14.09;100.00;98608.94;5092348;28;20044;-45
2023/10/25 04:31:17;;;;;;;9.50;6.47;;;;;;;14.10;100.00;98615.13;5092484;28;20062;-43
2023/10/25 04:33:45;;;;;;;10.63;6.50;;;;;;;14.00;100.00;98620.56;5092291;28;20056;-43
2023/10/25 04:36:14;;;;;;;9.77;6.88;;;;;;;14.06;100.00;98625.28;5092089;28;20056;-45
2023/10/25 04:38:42;;;;;;;10.00;6.22;;;;;;;13.92;100.00;98615.13;5093172;28;20097;-43
2023/10/25 04:41:19;;;;;;;9.10;6.35;;;;;;;14.05;100.00;98623.63;5096428;28;20075;-43
2023/10/25 04:43:48;;;;;;;10.50;7.00;;;;;;;13.97;100.00;98621.69;5096268;28;20045;-42
2023/10/25 04:46:17;;;;;;;9.85;6.82;;;;;;;13.96;100.00;98624.53;5095318;28;20048;-44
2023/10/25 04:48:45;;;;;;;12.55;7.30;;;;;;;13.97;100.00;98631.56;5095948;28;20054;-44
2023/10/25 04:51:14;;;;;;;10.75;6.70;;;;;;;13.95;100.00;98641.63;5096197;28;20047;-43
2023/10/25 04:53:45;;;;;;;10.00;6.85;;;;;;;13.82;100.00;98641.16;5095914;28;20138;-43
2023/10/25 04:56:14;;;;;;;11.35;7.68;;;;;;;13.98;100.00;98649.34;5095666;28;20105;-42
2023/10/25 04:58:49;;;;;;;11.35;7.65;;;;;;;13.84;100.00;98655.25;5096147;28;20058;-43
2023/10/25 05:01:17;;;;;;;10.50;7.50;;;;;;;13.92;100.00;98661.53;5095979;28;20058;-42
2023/10/25 05:03:47;;;;;;;11.23;7.45;;;;;;;13.95;100.00;98663.06;5096098;28;20052;-42
2023/10/25 05:06:16;;;;;;;16.00;8.98;;;;;;;13.95;100.00;98666.59;5095966;28;20051;-43
2023/10/25 05:08:44;;;;;;;13.13;9.07;;;;;;;14.01;100.00;98670.50;5095442;28;20473;-43
2023/10/25 05:11:15;;;;;;;12.85;8.07;;;;;;;14.07;100.00;98677.91;5095312;28;20040;-44
2023/10/25 05:13:48;;;;;;;11.45;8.02;;;;;;;13.96;100.00;98686.19;5095602;28;20628;-43
2023/10/25 05:16:20;;;;;;;11.57;8.13;;;;;;;13.95;100.00;98685.34;5095839;28;20047;-44
2023/10/25 05:18:49;;;;;;;13.15;8.13;;;;;;;13.90;100.00;98689.50;5095796;28;20048;-44
2023/10/25 05:21:19;;;;;;;10.73;7.80;;;;;;;13.89;100.00;98693.13;5095550;28;20055;-43
2023/10/25 05:23:51;;;;;;;13.35;8.80;;;;;;;13.88;100.00;98700.34;5095266;28;20060;-42
2023/10/25 05:26:23;;;;;;;12.57;7.97;;;;;;;13.86;100.00;98701.50;5095304;28;20056;-44
2023/10/25 05:28:53;;;;;;;12.15;8.57;;;;;;;13.84;100.00;98716.88;5095415;28;20557;-46
2023/10/25 05:31:23;;;;;;;12.05;8.32;;;;;;;13.81;100.00;98723.41;5095449;28;20543;-43
2023/10/25 05:33:52;;;;;;;13.57;8.43;;;;;;;13.84;100.00;98733.81;5095120;28;20489;-43
2023/10/25 05:36:21;;;;;;;12.10;8.32;;;;;;;13.80;100.00;98723.50;5094236;28;20428;-42
2023/10/25 05:38:53;;;;;;;12.43;7.75;;;;;;;13.86;100.00;98734.50;5095373;28;20048;-43
2023/10/25 05:41:24;;;;;;;14.77;8.32;;;;;;;13.92;100.00;98751.81;5095326;28;20055;-43
2023/10/25 05:44:01;;;;;;;13.32;8.57;;;;;;;13.86;100.00;98749.72;5095076;28;20044;-45
2023/10/25 05:46:31;;;;;;;12.68;9.00;;;;;;;13.72;100.00;98751.94;5094967;28;20044;-42
2023/10/25 05:49:02;;;;;;;13.77;8.07;;;;;;;13.74;100.00;98757.97;5095160;28;20055;-42
2023/10/25 05:51:31;;;;;;;11.13;8.02;;;;;;;13.71;100.00;98760.97;5094559;28;20196;-44
2023/10/25 05:54:03;;;;;;;12.10;7.70;;;;;;;13.75;100.00;98756.97;5094984;28;20063;-42
2023/10/25 05:56:36;;;;;;;11.02;7.80;;;;;;;13.84;100.00;98754.41;5094775;28;20067;-43
2023/10/25 05:59:06;;;;;;;11.73;8.15;;;;;;;13.82;100.00;98762.59;5094527;28;20052;-42
2023/10/25 06:01:47;;;;;;;10.68;7.38;;;;;;;13.79;100.00;98764.72;5094716;28;20047;-47
2023/10/25 06:04:16;;;;;;;12.05;7.90;;;;;;;13.75;100.00;98766.84;5094688;28;20047;-49
2023/10/25 06:06:48;;;;;;;11.57;7.88;;;;;;;13.66;100.00;98773.94;5094513;28;20044;-42
2023/10/25 06:09:17;;;;;;;11.90;7.40;;;;;;;13.75;100.00;98794.50;5093175;28;20056;-43
2023/10/25 06:11:46;;;;;;;11.30;7.25;;;;;;;13.80;100.00;98798.56;5094216;28;20280;-42
2023/10/25 06:14:19;;;;;;;10.90;7.28;;;;;;;13.81;100.00;98797.59;5094357;28;20074;-43
2023/10/25 06:16:47;;;;;;;10.75;7.60;;;;;;;13.80;100.00;98815.50;5094666;28;20097;-44
2023/10/25 06:19:19;;;;;;;10.70;7.40;;;;;;;13.73;100.00;98825.13;5094204;28;20132;-45
2023/10/25 06:21:49;;;;;;;11.10;6.72;;;;;;;13.79;100.00;98834.38;5093928;28;20052;-43
2023/10/25 06:24:21;;;;;;;10.95;6.90;;;;;;;13.75;100.00;98840.06;5094153;28;20065;-43
2023/10/25 06:26:52;;;;;;;12.75;7.45;;;;;;;13.83;100.00;98849.19;5094139;28;20055;-42
2023/10/25 06:29:23;;;;;;;9.05;6.47;;;;;;;13.90;100.00;98863.72;5094331;28;20066;-45
2023/10/25 06:31:51;;;;;;;9.57;6.88;;;;;;;13.99;100.00;98865.47;5094192;28;20500;-43
2023/10/25 06:34:20;;;;;;;10.32;6.93;;;;;;;13.98;100.00;98869.16;5093985;28;20052;-43
2023/10/25 06:36:49;;;;;;;9.68;6.55;;;;;;;13.94;100.00;98875.81;5094004;28;20056;-43
2023/10/25 06:39:18;;;;;;;8.95;6.60;;;;;;;13.88;100.00;98873.72;5094128;28;20048;-42
2023/10/25 06:41:48;;;;;;;9.65;6.40;;;;;;;13.95;100.00;98877.50;5093930;28;20123;-43
2023/10/25 06:44:17;;;;;;;9.38;5.95;;;;;;;14.04;100.00;98887.34;5093798;28;20457;-43
2023/10/25 06:46:47;;;;;;;9.30;6.10;;;;;;;14.06;100.00;98898.75;5093878;28;20054;-43
2023/10/25 06:49:16;;;;;;;8.25;6.05;;;;;;;14.09;100.00;98901.16;5093667;28;20051;-44
2023/10/25 06:51:45;;;;;;;7.60;5.28;;;;;;;14.17;100.00;98895.03;5093625;28;20051;-44
2023/10/25 06:54:14;;;;;;;9.05;6.05;;;;;;;14.14;100.00;98901.56;5093073;28;20508;-43
2023/10/25 06:56:43;;;;;;;8.23;5.85;;;;;;;14.20;100.00;98889.41;5093692;28;20048;-43
2023/10/25 06:59:12;;;;;;;8.60;5.70;;;;;;;14.20;100.00;98895.59;5093314;28;20123;-42
2023/10/25 07:01:45;;;;;;;8.68;6.05;;;;;;;14.26;100.00;98900.38;5092466;28;20040;-42
2023/10/25 07:04:16;;;;;;;10.95;6.18;;;;;;;14.24;100.00;98891.63;5093137;28;20048;-43
2023/10/25 07:06:46;;;;;;;9.18;6.05;;;;;;;14.39;100.00;98894.69;5093519;28;20108;-43
2023/10/25 07:09:16;;;;;;;8.57;6.10;;;;;;;14.31;100.00;98897.25;5090346;28;20079;-42
2023/10/25 07:11:44;;;;;;;8.35;5.70;;;;;;;14.33;100.00;98901.47;5093647;28;20044;-43
2023/10/25 07:14:13;;;;;;;10.63;5.85;;;;;;;14.31;100.00;98906.13;5092636;28;20047;-41
2023/10/25 07:16:41;;;;;;;9.13;5.60;;;;;;;14.25;100.00;98893.31;5098895;28;20040;-42
2023/10/25 07:19:10;;;;;;;9.10;5.72;;;;;;;14.37;100.00;98893.13;5092186;28;20051;-42
2023/10/25 07:21:40;;;;;;;9.45;5.63;;;;;;;14.49;100.00;98887.44;5092651;28;20104;-41
2023/10/25 07:24:10;;;;;;;9.68;5.50;;;;;;;14.52;100.00;98889.81;5092528;28;20063;-42
2023/10/25 07:26:41;;;;;;;9.30;5.60;;;;;;;14.51;100.00;98889.97;5092200;28;20134;-42
2023/10/25 07:29:09;;;;;;;9.43;5.93;;;;;;;14.44;100.00;98892.38;5092592;28;20147;-42
2023/10/25 07:31:38;;;;;;;8.80;5.43;;;;;;;14.47;100.00;98896.63;5092020;28;20104;-43
2023/10/25 07:34:06;;;;;;;7.88;5.40;;;;;;;14.43;100.00;98892.53;5092589;28;20055;-41
2023/10/25 07:36:37;;;;;;;9.45;5.93;;;;;;;14.51;100.00;98889.97;5092297;28;20440;-42
2023/10/25 07:39:07;;;;;;;7.85;5.15;;;;;;;14.52;100.00;98887.13;5090961;28;20054;-43
2023/10/25 07:41:39;;;;;;;7.97;5.38;;;;;;;14.65;100.00;98883.25;5092490;28;20047;-42
2023/10/25 07:44:09;;;;;;;7.97;5.57;;;;;;;14.83;100.00;98886.78;5092653;28;20044;-42
2023/10/25 07:46:41;;;;;;;9.02;5.22;;;;;;;15.04;100.00;98899.91;5092808;28;20052;-42
2023/10/25 07:49:09;;;;;;;8.18;5.45;;;;;;;14.88;100.00;98893.41;5092343;28;20493;-42
2023/10/25 07:51:37;;;;;;;7.28;5.03;;;;;;;15.04;100.00;98910.66;5092458;28;20451;-41
2023/10/25 07:54:10;;;;;;;8.98;5.35;;;;;;;15.05;100.00;98902.44;5092201;28;20044;-41
2023/10/25 07:56:49;;;;;;;8.63;5.07;;;;;;;15.12;100.00;98942.97;5091272;28;20101;-46
2023/10/25 07:59:40;;;;;;;7.50;4.90;;;;;;;15.00;100.00;98941.50;5092751;28;20088;-43
2023/10/25 08:02:08;;;;;;;8.77;5.07;;;;;;;14.90;100.00;98946.94;5092910;28;20088;-43
2023/10/25 08:04:37;;;;;;;8.15;5.18;;;;;;;14.88;100.00;98944.41;5092606;28;20056;-41
2023/10/25 08:07:05;;;;;;;9.27;4.88;;;;;;;14.94;100.00;98947.47;5092111;28;20099;-41
2023/10/25 08:09:35;;;;;;;6.78;4.43;;;;;;;14.98;100.00;98938.97;5092173;28;20131;-43
2023/10/25 08:12:04;;;;;;;6.82;4.47;;;;;;;14.98;100.00;98948.88;5091999;28;20476;-42
2023/10/25 08:14:33;;;;;;;7.20;4.60;;;;;;;15.04;100.00;98964.34;5091762;28;20058;-42
2023/10/25 08:17:04;;;;;;;6.50;4.43;;;;;;;15.12;100.00;98977.88;5091973;28;20404;-42
2023/10/25 08:19:35;;;;;;;7.13;4.82;;;;;;;14.97;100.00;98979.41;5092024;28;20040;-43
2023/10/25 08:22:08;;;;;;;7.43;4.63;;;;;;;15.36;100.00;98986.19;5090119;28;20048;-42
2023/10/25 08:24:39;;;;;;;7.68;4.57;;;;;;;15.39;100.00;98974.28;5091792;28;20048;-42
2023/10/25 08:27:11;;;;;;;6.00;4.03;;;;;;;15.48;100.00;98965.31;5091747;28;20090;-43
2023/10/25 08:29:39;;;;;;;6.93;4.47;;;;;;;15.56;100.00;98972.59;5091641;28;20048;-42
2023/10/25 08:32:07;;;;;;;7.10;4.30;;;;;;;15.46;100.00;98981.59;5091963;28;20059;-42
2023/10/25 08:34:36;;;;;;;6.70;4.10;;;;;;;15.40;100.00;98984.88;5092130;28;20043;-42
2023/10/25 08:37:04;;;;;;;6.00;4.00;;;;;;;15.36;100.00;98986.19;5091907;28;20040;-43
2023/10/25 08:39:33;;;;;;;8.23;4.28;;;;;;;15.39;100.00;98996.63;5091873;28;20048;-43
2023/10/25 08:42:05;;;;;;;5.90;4.00;;;;;;;15.36;100.00;99007.69;5090178;28;20052;-41
2023/10/25 08:44:39;;;;;;;9.55;4.18;;;;;;;15.24;100.00;99014.25;5091740;28;20130;-47
2023/10/25 08:47:10;;;;;;;6.13;4.25;;;;;;;15.24;100.00;99027.69;5091717;28;20040;-42
2023/10/25 08:49:39;;;;;;;6.22;3.78;;;;;;;15.23;100.00;99028.69;5091913;28;20051;-42
2023/10/25 08:52:07;;;;;;;5.18;3.70;;;;;;;15.28;100.00;99025.56;5092262;28;20051;-50
2023/10/25 08:54:39;;;;;;;6.78;4.32;;;;;;;15.19;100.00;99051.50;5091833;28;20500;-42
2023/10/25 08:57:10;;;;;;;7.40;4.20;;;;;;;15.35;100.00;99045.47;5092188;28;20099;-41
2023/10/25 08:59:43;;;;;;;8.60;4.30;;;;;;;15.36;100.00;99061.41;5091622;28;20051;-44
2023/10/25 09:02:15;;;;;;;8.30;4.53;;;;;;;15.26;100.00;99067.84;5091502;28;20048;-43
2023/10/25 09:04:59;;;;;;;9.07;4.40;;;;;;;15.26;100.00;99071.38;5123560;27;20048;-48
2023/10/25 09:07:28;;;;;;;7.05;4.35;;;;;;;15.31;100.00;99065.53;5091571;28;20048;-42
2023/10/25 09:09:57;;;;;;;7.05;4.10;;;;;;;15.35;100.00;99059.75;5092023;28;20044;-46
2023/10/25 09:12:29;;;;;;;8.88;4.40;;;;;;;15.61;100.00;99053.63;5091154;28;20052;-42
2023/10/25 09:15:01;;;;;;;8.90;4.45;;;;;;;15.52;100.00;99055.34;5124432;27;20127;-43
2023/10/25 09:17:29;;;;;;;7.63;4.03;;;;;;;15.65;100.00;99065.78;5091437;28;20093;-44
2023/10/25 09:19:57;;;;;;;8.35;3.95;;;;;;;15.79;100.00;99051.78;5090580;28;20054;-42
2023/10/25 09:22:27;;;;;;;7.68;4.10;;;;;;;15.85;100.00;99061.94;5089983;28;20145;-44
2023/10/25 09:24:58;;;;;;;6.60;3.92;;;;;;;15.79;100.00;99075.97;5091768;28;20044;-41
2023/10/25 09:27:27;;;;;;;7.28;4.05;;;;;;;15.77;100.00;99082.53;5095654;28;20185;-42
2023/10/25 09:30:13;;;;;;;6.25;3.78;;;;;;;15.81;100.00;99086.56;5095140;28;20086;-42
2023/10/25 09:32:54;;;;;;;6.97;4.00;;;;;;;15.73;100.00;99087.38;5095596;28;20072;-42
2023/10/25 09:35:26;;;;;;;6.35;3.95;;;;;;;15.79;100.00;99093.97;5095361;28;20048;-41
2023/10/25 09:37:55;;;;;;;6.07;4.00;;;;;;;16.06;100.00;99090.34;5095674;28;20560;-43
2023/10/25 09:40:25;;;;;;;5.05;3.45;;;;;;;16.10;100.00;99075.56;5094111;28;20332;-42
2023/10/25 09:43:05;;;;;;;4.45;3.08;;;;;;;16.19;100.00;99083.53;5095453;28;20155;-44
2023/10/25 09:45:35;;;;;;;4.60;2.90;;;;;;;16.18;100.00;99102.53;5095346;28;20423;-42
2023/10/25 09:48:08;;;;;;;4.65;3.10;;;;;;;16.15;100.00;99102.88;5094873;28;20048;-42
2023/10/25 09:50:40;;;;;;;4.03;2.50;;;;;;;16.10;100.00;99113.22;5094936;28;20048;-42
2023/10/25 09:53:13;;;;;;;4.10;2.60;;;;;;;16.06;100.00;99117.25;5094729;28;20052;-42
2023/10/25 09:55:54;;;;;;;4.45;2.47;;;;;;;16.06;100.00;99122.63;5095026;28;20044;-43
2023/10/25 09:58:24;;;;;;;4.25;2.70;;;;;;;16.03;100.00;99104.97;5094337;28;20135;-42
2023/10/25 10:00:54;;;;;;;3.63;2.50;;;;;;;16.02;100.00;99103.28;5093622;28;20044;-43
2023/10/25 10:03:31;;;;;;;3.85;2.75;;;;;;;16.06;100.00;99093.03;5094054;28;20361;-42
2023/10/25 10:06:10;;;;;;;5.22;2.70;;;;;;;16.11;100.00;99096.09;5093795;28;20052;-43
2023/10/25 10:08:44;;;;;;;3.58;2.25;;;;;;;16.12;100.00;99097.81;5094313;28;20040;-43
2023/10/25 10:11:17;;;;;;;4.35;2.38;;;;;;;16.17;100.00;99098.16;5093542;28;20044;-43
2023/10/25 10:13:45;;;;;;;4.90;2.60;;;;;;;16.19;100.00;99106.91;5094240;28;20067;-43
2023/10/25 10:16:15;;;;;;;3.85;2.40;;;;;;;16.24;100.00;99094.69;5093456;28;20075;-41
2023/10/25 10:18:52;;;;;;;4.63;2.20;;;;;;;16.32;100.00;99102.00;5094175;28;20106;-43
2023/10/25 10:21:20;;;;;;;3.25;1.95;;;;;;;16.31;100.00;99100.31;5093415;28;20094;-43
2023/10/25 10:23:50;;;;;;;3.33;2.08;;;;;;;16.29;100.00;99103.13;5092972;28;20363;-42
2023/10/25 10:26:54;;;;;;;3.13;1.98;;;;;;;16.33;100.00;99098.31;5093378;28;20417;-42
2023/10/25 10:29:37;;;;;;;3.25;2.22;;;;;;;16.47;100.00;99091.50;5088951;28;20044;-44
2023/10/25 10:32:08;;;;;;;3.42;2.28;;;;;;;16.38;100.00;99084.38;5093321;28;20048;-44
2023/10/25 10:34:44;;;;;;;3.63;2.10;;;;;;;16.53;100.00;99083.63;5093101;28;20040;-42
2023/10/25 10:37:15;;;;;;;3.97;2.20;;;;;;;16.57;100.00;99090.38;5092542;28;20055;-45
2023/10/25 10:40:14;;;;;;;3.58;2.25;;;;;;;16.42;100.00;99091.97;5093012;28;20039;-42
2023/10/25 10:42:43;;;;;;;4.32;2.10;;;;;;;16.40;100.00;99088.56;5092921;28;20078;-42
2023/10/25 10:45:15;;;;;;;2.38;1.52;;;;;;;16.48;100.00;99095.88;5092949;28;20117;-41
2023/10/25 10:47:51;;;;;;;6.80;2.42;;;;;;;16.68;100.00;99091.13;5093059;28;20178;-42
2023/10/25 10:50:21;;;;;;;2.80;1.77;;;;;;;16.76;100.00;99088.50;5092756;28;20048;-43
2023/10/25 10:52:51;;;;;;;3.05;1.85;;;;;;;16.79;100.00;99080.97;5093204;28;20040;-44
2023/10/25 10:55:22;;;;;;;3.03;1.70;;;;;;;16.84;100.00;99081.31;5092880;28;20051;-43
2023/10/25 10:57:51;;;;;;;3.88;1.67;;;;;;;16.75;100.00;99081.44;5092505;28;20167;-43
2023/10/25 11:00:25;;;;;;;2.65;1.50;;;;;;;16.88;100.00;99079.13;5093124;28;20161;-44
2023/10/25 11:02:56;;;;;;;3.37;1.90;;;;;;;17.05;100.00;99075.53;5092706;28;20067;-43
2023/10/25 11:05:26;;;;;;;3.53;1.70;;;;;;;17.17;100.00;99067.97;5092812;28;20135;-43
2023/10/25 11:07:55;;;;;;;3.45;1.90;;;;;;;17.16;100.00;99069.00;5091603;28;20044;-44
2023/10/25 11:10:28;;;;;;;2.95;1.60;;;;;;;17.26;99.04;99066.16;5092512;28;20082;-43
2023/10/25 11:12:58;;;;;;;3.83;1.70;;;;;;;17.49;98.50;99069.09;5092889;28;20052;-42
2023/10/25 11:15:30;;;;;;;3.83;1.70;;;;;;;17.46;97.23;99070.25;5093227;28;20044;-44
2023/10/25 11:18:00;;;;;;;2.13;1.50;;;;;;;17.53;97.99;99049.72;5092586;28;20511;-43
2023/10/25 11:20:29;;;;;;;3.08;1.70;;;;;;;17.61;95.29;99063.22;5092412;28;20454;-43
2023/10/25 11:23:00;;;;;;;5.28;1.80;;;;;;;17.64;95.82;99056.66;5092049;28;20441;-43
2023/10/25 11:25:30;;;;;;;3.03;1.70;;;;;;;17.57;95.91;99056.50;5092658;28;20047;-43
2023/10/25 11:27:59;;;;;;;3.03;1.80;;;;;;;17.65;95.18;99059.19;5092383;28;20067;-43
2023/10/25 11:30:28;;;;;;;2.35;1.52;;;;;;;17.54;93.72;99051.41;5092389;28;20456;-44
2023/10/25 11:32:57;;;;;;;3.40;1.90;;;;;;;17.43;92.45;99059.81;5092068;28;20044;-43
2023/10/25 11:35:28;;;;;;;2.83;1.75;;;;;;;17.52;92.45;99055.28;5092490;28;20040;-41